createdAt,value
2018-05-03T00:02:09.951Z,13.48
2018-05-03T00:05:20.229Z,12.15
2018-05-03T00:08:31.330Z,9.38
2018-05-03T00:11:41.496Z,9.98
2018-05-03T00:14:51.660Z,10.65
2018-05-03T00:18:01.612Z,10.32
2018-05-03T00:21:11.751Z,12.00
2018-05-03T00:24:22.965Z,10.82
2018-05-03T00:27:33.407Z,11.25
2018-05-03T00:30:43.376Z,12.20
2018-05-03T00:33:53.486Z,10.68
2018-05-03T00:37:03.778Z,12.68
2018-05-03T00:40:13.926Z,9.90
2018-05-03T00:43:24.134Z,12.48
2018-05-03T00:46:34.216Z,12.63
2018-05-03T00:49:45.542Z,12.57
2018-05-03T00:52:55.768Z,16.45
2018-05-03T00:56:05.831Z,16.15
2018-05-03T00:59:16.424Z,13.10
2018-05-03T01:02:26.526Z,12.75
2018-05-03T01:05:36.571Z,14.68
2018-05-03T01:08:46.766Z,18.02
2018-05-03T01:11:56.940Z,14.80
2018-05-03T01:15:07.631Z,14.30
2018-05-03T01:18:17.763Z,16.20
2018-05-03T01:21:27.740Z,15.70
2018-05-03T01:24:37.792Z,18.33
2018-05-03T01:27:47.836Z,15.90
2018-05-03T01:30:58.017Z,14.93
2018-05-03T01:34:08.300Z,14.13
2018-05-03T01:37:18.679Z,16.10
2018-05-03T01:40:29.150Z,17.85
2018-05-03T01:43:39.087Z,16.83
2018-05-03T01:46:48.528Z,14.90
2018-05-03T01:49:59.014Z,14.75
2018-05-03T01:53:08.982Z,14.68
2018-05-03T01:56:19.046Z,16.12
2018-05-03T01:59:29.286Z,13.90
2018-05-03T02:02:40.027Z,14.93
2018-05-03T02:05:50.089Z,17.48
2018-05-03T02:09:00.717Z,14.60
2018-05-03T02:12:11.009Z,12.52
2018-05-03T02:15:21.270Z,12.35
2018-05-03T02:18:31.582Z,16.27
2018-05-03T02:21:42.393Z,14.82
2018-05-03T02:24:52.368Z,13.93
2018-05-03T02:28:02.469Z,14.90
2018-05-03T02:31:13.218Z,17.90
2018-05-03T02:34:23.475Z,17.05
2018-05-03T02:37:33.640Z,16.95
2018-05-03T02:40:43.612Z,16.77
2018-05-03T02:43:53.381Z,16.95
2018-05-03T02:47:03.596Z,17.55
2018-05-03T02:50:13.261Z,15.00
2018-05-03T02:53:23.648Z,19.85
2018-05-03T02:56:33.378Z,16.25
2018-05-03T02:59:54.802Z,16.27
2018-05-03T03:03:22.210Z,16.58
2018-05-03T03:06:49.228Z,16.87
2018-05-03T03:14:17.608Z,18.92
2018-05-03T03:17:44.502Z,17.60
2018-05-03T03:21:12.003Z,21.45
2018-05-03T03:24:38.596Z,23.45
2018-05-03T03:28:05.750Z,17.98
2018-05-03T03:31:32.506Z,18.55
2018-05-03T03:34:42.104Z,23.60
2018-05-03T03:38:09.797Z,19.75
2018-05-03T03:41:31.721Z,17.15
2018-05-03T03:44:47.121Z,15.68
2018-05-03T03:47:56.659Z,20.58
2018-05-03T03:51:07.175Z,17.10
2018-05-03T03:54:16.937Z,20.17
2018-05-03T03:57:26.456Z,20.98
2018-05-03T04:00:37.387Z,19.33
2018-05-03T04:03:47.435Z,16.08
2018-05-03T04:06:58.070Z,16.17
2018-05-03T04:10:08.044Z,18.33
2018-05-03T04:13:18.072Z,17.20
2018-05-03T04:16:27.878Z,19.40
2018-05-03T04:19:49.205Z,16.98
2018-05-03T04:23:11.669Z,20.60
2018-05-03T04:26:21.591Z,20.08
2018-05-03T04:29:31.655Z,19.02
2018-05-03T04:32:41.484Z,21.98
2018-05-03T04:35:51.515Z,24.35
2018-05-03T04:39:01.433Z,19.65
2018-05-03T04:42:11.476Z,24.65
2018-05-03T04:45:21.381Z,23.80
2018-05-03T04:48:32.039Z,20.58
2018-05-03T04:51:41.897Z,18.17
2018-05-03T04:54:51.852Z,18.52
2018-05-03T04:58:01.634Z,20.30
2018-05-03T05:01:11.670Z,20.55
2018-05-03T05:04:21.576Z,14.93
2018-05-03T05:07:31.576Z,17.25
2018-05-03T05:10:41.906Z,18.42
2018-05-03T05:13:52.019Z,20.45
2018-05-03T05:17:01.903Z,17.17
2018-05-03T05:20:12.455Z,22.87
2018-05-03T05:23:22.812Z,20.23
2018-05-03T05:26:32.907Z,20.65
2018-05-03T05:29:42.806Z,18.30
2018-05-03T05:32:53.527Z,16.20
2018-05-03T05:36:03.400Z,17.62
2018-05-03T05:39:13.117Z,11.27
2018-05-03T05:42:23.160Z,22.58
2018-05-03T05:45:33.047Z,19.90
2018-05-03T05:48:42.993Z,14.20
2018-05-03T05:51:52.879Z,18.75
2018-05-03T05:55:02.727Z,20.15
2018-05-03T05:58:12.887Z,15.88
2018-05-03T06:01:23.443Z,15.75
2018-05-03T06:04:33.455Z,17.67
2018-05-03T06:07:43.303Z,15.65
2018-05-03T06:10:53.352Z,17.42
2018-05-03T06:14:03.399Z,16.05
2018-05-03T06:17:13.565Z,15.63
2018-05-03T06:20:23.757Z,15.77
2018-05-03T06:23:33.773Z,12.15
2018-05-03T06:26:43.816Z,18.60
2018-05-03T06:29:53.722Z,14.55
2018-05-03T06:33:04.368Z,16.17
2018-05-03T06:36:14.268Z,17.48
2018-05-03T06:39:24.918Z,14.05
2018-05-03T06:42:35.007Z,15.10
2018-05-03T06:45:46.512Z,17.10
2018-05-03T06:48:56.750Z,12.13
2018-05-03T06:52:07.358Z,15.27
2018-05-03T06:55:17.850Z,13.65
2018-05-03T06:58:27.969Z,13.05
2018-05-03T07:01:38.056Z,16.95
2018-05-03T07:04:48.207Z,17.08
2018-05-03T07:07:58.750Z,15.82
2018-05-03T07:11:08.916Z,15.60
2018-05-03T07:14:19.588Z,14.27
2018-05-03T07:17:29.550Z,16.25
2018-05-03T07:20:39.625Z,14.05
2018-05-03T07:23:49.540Z,15.90
2018-05-03T07:27:00.457Z,14.90
2018-05-03T07:30:10.705Z,16.70
2018-05-03T07:33:20.604Z,15.45
2018-05-03T07:36:31.096Z,13.80
2018-05-03T07:39:41.223Z,13.57
2018-05-03T07:42:51.414Z,15.25
2018-05-03T07:46:01.539Z,17.23
2018-05-03T07:49:12.053Z,12.65
2018-05-03T07:52:22.207Z,13.85
2018-05-03T07:55:32.641Z,10.43
2018-05-03T07:58:43.267Z,13.90
2018-05-03T08:01:53.125Z,12.90
2018-05-03T08:05:03.176Z,13.90
2018-05-03T08:08:13.030Z,11.85
2018-05-03T08:11:22.982Z,10.38
2018-05-03T08:14:33.142Z,13.45
2018-05-03T08:17:43.111Z,12.65
2018-05-03T08:20:53.044Z,15.98
2018-05-03T08:24:03.256Z,15.02
2018-05-03T08:27:12.990Z,12.45
2018-05-03T08:30:22.879Z,12.18
2018-05-03T08:33:33.657Z,10.05
2018-05-03T08:36:44.184Z,10.85
2018-05-03T08:39:54.356Z,9.70
2018-05-03T08:43:04.214Z,11.35
2018-05-03T08:46:14.074Z,11.43
2018-05-03T08:49:24.323Z,13.40
2018-05-03T08:52:34.594Z,9.60
2018-05-03T08:55:44.193Z,11.00
2018-05-03T08:58:54.409Z,11.23
2018-05-03T09:02:04.946Z,13.10
2018-05-03T09:05:15.061Z,10.60
2018-05-03T09:08:25.413Z,9.65
2018-05-03T09:11:35.287Z,11.60
2018-05-03T09:14:45.268Z,10.80
2018-05-03T09:17:55.236Z,10.07
2018-05-03T09:21:05.162Z,13.93
2018-05-03T09:24:15.495Z,12.13
2018-05-03T09:27:25.522Z,11.50
2018-05-03T09:30:35.543Z,9.18
2018-05-03T09:33:45.362Z,8.25
2018-05-03T09:36:55.205Z,10.57
2018-05-03T09:40:05.031Z,10.65
2018-05-03T09:43:14.933Z,10.20
2018-05-03T09:46:24.861Z,8.60
2018-05-03T09:49:35.589Z,9.32
2018-05-03T09:52:47.018Z,12.27
2018-05-03T09:55:57.369Z,10.85
2018-05-03T09:59:08.039Z,12.07
2018-05-03T10:02:18.363Z,10.55
2018-05-03T10:05:28.169Z,10.90
2018-05-03T10:08:38.101Z,11.15
2018-05-03T10:11:47.868Z,11.70
2018-05-03T10:14:58.749Z,14.48
2018-05-03T10:18:08.833Z,10.85
2018-05-03T10:21:18.783Z,9.88
2018-05-03T10:24:28.888Z,12.80
2018-05-03T10:27:39.744Z,11.70
2018-05-03T10:30:50.071Z,14.75
2018-05-03T10:34:00.365Z,11.07
2018-05-03T10:37:10.813Z,9.07
2018-05-03T10:40:22.247Z,9.10
2018-05-03T10:43:32.220Z,9.80
2018-05-03T10:46:42.218Z,8.30
2018-05-03T10:49:53.362Z,9.93
2018-05-03T10:53:04.025Z,12.05
2018-05-03T10:56:14.343Z,8.60
2018-05-03T10:59:25.390Z,10.45
2018-05-03T11:02:36.086Z,10.70
2018-05-03T11:05:45.913Z,10.65
2018-05-03T11:08:56.586Z,13.70
2018-05-03T11:12:06.494Z,11.18
2018-05-03T11:15:17.214Z,8.90
2018-05-03T11:18:27.849Z,10.55
2018-05-03T11:21:37.956Z,9.50
2018-05-03T11:24:49.324Z,7.57
2018-05-03T11:27:59.169Z,7.55
2018-05-03T11:31:09.518Z,10.43
2018-05-03T11:34:19.558Z,9.23
2018-05-03T11:37:29.663Z,11.10
2018-05-03T11:40:39.890Z,10.60
2018-05-03T11:43:50.213Z,11.15
2018-05-03T11:47:00.603Z,9.30
2018-05-03T11:50:11.191Z,8.77
2018-05-03T11:53:21.127Z,10.73
2018-05-03T11:56:30.980Z,10.48
2018-05-03T11:59:41.260Z,13.73
2018-05-03T12:02:52.137Z,11.52
2018-05-03T12:06:03.056Z,10.18
2018-05-03T12:09:13.591Z,11.40
2018-05-03T12:12:24.298Z,12.70
2018-05-03T12:15:35.026Z,12.10
2018-05-03T12:18:45.696Z,10.13
2018-05-03T12:21:56.512Z,12.15
2018-05-03T12:25:06.574Z,10.75
2018-05-03T12:28:17.282Z,9.85
2018-05-03T12:31:27.352Z,15.40
2018-05-03T12:34:37.386Z,14.38
2018-05-03T12:37:47.439Z,16.37
2018-05-03T12:40:58.338Z,17.12
2018-05-03T12:44:08.596Z,17.12
2018-05-03T12:47:18.806Z,16.42
2018-05-03T12:50:28.701Z,14.52
2018-05-03T12:53:38.982Z,13.62
2018-05-03T12:56:49.893Z,13.80
2018-05-03T13:00:01.364Z,11.12
2018-05-03T13:03:12.369Z,15.65
2018-05-03T13:06:23.767Z,11.23
2018-05-03T13:09:33.758Z,14.93
2018-05-03T13:12:44.146Z,13.85
2018-05-03T13:15:54.864Z,11.85
2018-05-03T13:19:13.480Z,11.95
2018-05-03T13:22:24.655Z,17.98
2018-05-03T13:25:35.606Z,16.67
2018-05-03T13:28:47.411Z,8.85
2018-05-03T13:31:57.557Z,9.07
2018-05-03T13:35:07.308Z,13.40
2018-05-03T13:38:17.211Z,15.20
2018-05-03T13:41:26.873Z,8.43
2018-05-03T13:44:37.847Z,11.80
2018-05-03T13:47:48.096Z,17.70
2018-05-03T13:50:58.774Z,15.73
2018-05-03T13:54:08.724Z,16.90
2018-05-03T13:57:18.523Z,16.75
2018-05-03T14:00:29.651Z,11.70
2018-05-03T14:03:39.532Z,19.62
2018-05-03T14:06:49.968Z,12.98
2018-05-03T14:10:00.298Z,13.60
2018-05-03T14:13:10.091Z,19.10
2018-05-03T14:16:20.440Z,16.45
2018-05-03T14:19:31.688Z,15.80
2018-05-03T14:22:41.806Z,19.70
2018-05-03T14:25:52.394Z,19.65
2018-05-03T14:29:02.365Z,18.85
2018-05-03T14:32:12.834Z,19.90
2018-05-03T14:35:22.781Z,18.33
2018-05-03T14:38:32.770Z,14.52
2018-05-03T14:41:43.461Z,12.07
2018-05-03T14:44:53.321Z,15.50
